sensor_id;sensor_type;location;lat;lon;timestamp;P1;durP1;ratioP1;P2;durP2;ratioP2
5456;SDS011;2751;49.802;9.944;2023-06-10T00:00:23;9.07;;;8.20;;
5456;SDS011;2751;49.802;9.944;2023-06-10T00:02:51;11.13;;;8.07;;
5456;SDS011;2751;49.802;9.944;2023-06-10T00:05:17;9.13;;;8.23;;
5456;SDS011;2751;49.802;9.944;2023-06-10T00:07:46;8.87;;;7.93;;
5456;SDS011;2751;49.802;9.944;2023-06-10T00:10:14;10.93;;;7.60;;
5456;SDS011;2751;49.802;9.944;2023-06-10T00:12:42;12.17;;;8.03;;
5456;SDS011;2751;49.802;9.944;2023-06-10T00:15:09;8.40;;;7.60;;
5456;SDS011;2751;49.802;9.944;2023-06-10T00:17:36;8.83;;;8.03;;
5456;SDS011;2751;49.802;9.944;2023-06-10T00:20:05;8.93;;;8.13;;
5456;SDS011;2751;49.802;9.944;2023-06-10T00:22:34;11.90;;;8.27;;
5456;SDS011;2751;49.802;9.944;2023-06-10T00:25:01;11.30;;;8.30;;
5456;SDS011;2751;49.802;9.944;2023-06-10T00:27:29;8.97;;;8.07;;
5456;SDS011;2751;49.802;9.944;2023-06-10T00:30:01;8.97;;;8.17;;
5456;SDS011;2751;49.802;9.944;2023-06-10T00:32:29;8.83;;;8.13;;
5456;SDS011;2751;49.802;9.944;2023-06-10T00:34:56;10.87;;;8.37;;
5456;SDS011;2751;49.802;9.944;2023-06-10T00:37:23;10.90;;;9.20;;
5456;SDS011;2751;49.802;9.944;2023-06-10T00:39:50;11.00;;;8.13;;
5456;SDS011;2751;49.802;9.944;2023-06-10T00:42:16;9.47;;;8.67;;
5456;SDS011;2751;49.802;9.944;2023-06-10T00:44:44;8.70;;;8.00;;
5456;SDS011;2751;49.802;9.944;2023-06-10T00:47:12;9.03;;;8.20;;
5456;SDS011;2751;49.802;9.944;2023-06-10T00:49:39;10.77;;;8.43;;
5456;SDS011;2751;49.802;9.944;2023-06-10T00:52:07;9.33;;;8.40;;
5456;SDS011;2751;49.802;9.944;2023-06-10T00:54:35;9.40;;;8.50;;
5456;SDS011;2751;49.802;9.944;2023-06-10T00:57:03;9.37;;;8.27;;
5456;SDS011;2751;49.802;9.944;2023-06-10T00:59:31;9.83;;;8.93;;
5456;SDS011;2751;49.802;9.944;2023-06-10T01:01:58;9.17;;;8.47;;
5456;SDS011;2751;49.802;9.944;2023-06-10T01:04:27;9.50;;;8.60;;
5456;SDS011;2751;49.802;9.944;2023-06-10T01:06:54;9.07;;;8.17;;
5456;SDS011;2751;49.802;9.944;2023-06-10T01:09:33;9.30;;;8.30;;
5456;SDS011;2751;49.802;9.944;2023-06-10T01:12:09;10.07;;;8.80;;
5456;SDS011;2751;49.802;9.944;2023-06-10T01:14:40;8.93;;;8.13;;
5456;SDS011;2751;49.802;9.944;2023-06-10T01:17:10;11.87;;;8.83;;
5456;SDS011;2751;49.802;9.944;2023-06-10T01:19:38;9.37;;;8.47;;
5456;SDS011;2751;49.802;9.944;2023-06-10T01:22:07;12.70;;;9.60;;
5456;SDS011;2751;49.802;9.944;2023-06-10T01:24:35;9.87;;;8.90;;
5456;SDS011;2751;49.802;9.944;2023-06-10T01:27:05;9.77;;;8.87;;
5456;SDS011;2751;49.802;9.944;2023-06-10T01:29:39;10.30;;;9.20;;
5456;SDS011;2751;49.802;9.944;2023-06-10T01:32:11;10.07;;;9.20;;
5456;SDS011;2751;49.802;9.944;2023-06-10T01:34:42;11.70;;;8.80;;
5456;SDS011;2751;49.802;9.944;2023-06-10T01:37:13;9.50;;;8.70;;
5456;SDS011;2751;49.802;9.944;2023-06-10T01:39:44;9.37;;;8.57;;
5456;SDS011;2751;49.802;9.944;2023-06-10T01:42:12;9.13;;;8.40;;
5456;SDS011;2751;49.802;9.944;2023-06-10T01:44:40;10.17;;;8.60;;
5456;SDS011;2751;49.802;9.944;2023-06-10T01:47:07;9.77;;;8.87;;
5456;SDS011;2751;49.802;9.944;2023-06-10T01:49:34;10.57;;;9.53;;
5456;SDS011;2751;49.802;9.944;2023-06-10T01:52:01;9.23;;;8.43;;
5456;SDS011;2751;49.802;9.944;2023-06-10T01:54:29;9.73;;;8.90;;
5456;SDS011;2751;49.802;9.944;2023-06-10T01:56:56;9.47;;;8.53;;
5456;SDS011;2751;49.802;9.944;2023-06-10T01:59:23;9.67;;;8.77;;
5456;SDS011;2751;49.802;9.944;2023-06-10T02:01:50;11.80;;;9.50;;
5456;SDS011;2751;49.802;9.944;2023-06-10T02:04:17;9.20;;;8.37;;
5456;SDS011;2751;49.802;9.944;2023-06-10T02:06:44;9.67;;;8.80;;
5456;SDS011;2751;49.802;9.944;2023-06-10T02:09:11;10.00;;;9.00;;
5456;SDS011;2751;49.802;9.944;2023-06-10T02:11:39;10.00;;;9.10;;
5456;SDS011;2751;49.802;9.944;2023-06-10T02:14:06;11.77;;;8.80;;
5456;SDS011;2751;49.802;9.944;2023-06-10T02:16:33;9.43;;;8.67;;
5456;SDS011;2751;49.802;9.944;2023-06-10T02:19:00;9.73;;;8.93;;
5456;SDS011;2751;49.802;9.944;2023-06-10T02:21:27;12.70;;;9.00;;
5456;SDS011;2751;49.802;9.944;2023-06-10T02:23:57;9.83;;;8.83;;
5456;SDS011;2751;49.802;9.944;2023-06-10T02:26:24;10.37;;;9.47;;
5456;SDS011;2751;49.802;9.944;2023-06-10T02:28:53;9.73;;;8.90;;
5456;SDS011;2751;49.802;9.944;2023-06-10T02:31:20;10.90;;;9.97;;
5456;SDS011;2751;49.802;9.944;2023-06-10T02:33:49;10.73;;;9.80;;
5456;SDS011;2751;49.802;9.944;2023-06-10T02:36:16;10.70;;;9.60;;
5456;SDS011;2751;49.802;9.944;2023-06-10T02:38:43;11.20;;;10.10;;
5456;SDS011;2751;49.802;9.944;2023-06-10T02:41:09;10.13;;;9.13;;
5456;SDS011;2751;49.802;9.944;2023-06-10T02:43:36;10.70;;;9.60;;
5456;SDS011;2751;49.802;9.944;2023-06-10T02:46:06;12.00;;;9.27;;
5456;SDS011;2751;49.802;9.944;2023-06-10T02:48:34;10.30;;;9.40;;
5456;SDS011;2751;49.802;9.944;2023-06-10T02:51:07;10.73;;;9.03;;
5456;SDS011;2751;49.802;9.944;2023-06-10T02:53:33;10.27;;;8.73;;
5456;SDS011;2751;49.802;9.944;2023-06-10T02:56:00;10.77;;;9.87;;
5456;SDS011;2751;49.802;9.944;2023-06-10T02:58:28;10.07;;;9.17;;
5456;SDS011;2751;49.802;9.944;2023-06-10T03:00:55;11.97;;;9.50;;
5456;SDS011;2751;49.802;9.944;2023-06-10T03:03:23;11.17;;;10.17;;
5456;SDS011;2751;49.802;9.944;2023-06-10T03:05:50;10.87;;;9.73;;
5456;SDS011;2751;49.802;9.944;2023-06-10T03:08:17;11.20;;;9.53;;
5456;SDS011;2751;49.802;9.944;2023-06-10T03:10:44;10.17;;;9.20;;
5456;SDS011;2751;49.802;9.944;2023-06-10T03:13:11;10.50;;;9.50;;
5456;SDS011;2751;49.802;9.944;2023-06-10T03:15:39;10.87;;;9.53;;
5456;SDS011;2751;49.802;9.944;2023-06-10T03:18:06;10.60;;;9.60;;
5456;SDS011;2751;49.802;9.944;2023-06-10T03:20:35;10.27;;;9.27;;
5456;SDS011;2751;49.802;9.944;2023-06-10T03:23:03;12.13;;;9.70;;
5456;SDS011;2751;49.802;9.944;2023-06-10T03:25:31;10.20;;;9.20;;
5456;SDS011;2751;49.802;9.944;2023-06-10T03:27:58;10.37;;;9.37;;
5456;SDS011;2751;49.802;9.944;2023-06-10T03:30:25;10.37;;;9.27;;
5456;SDS011;2751;49.802;9.944;2023-06-10T03:32:51;9.90;;;8.90;;
5456;SDS011;2751;49.802;9.944;2023-06-10T03:35:18;10.47;;;9.33;;
5456;SDS011;2751;49.802;9.944;2023-06-10T03:37:47;11.67;;;10.03;;
5456;SDS011;2751;49.802;9.944;2023-06-10T03:40:14;9.93;;;9.03;;
5456;SDS011;2751;49.802;9.944;2023-06-10T03:42:41;13.33;;;9.60;;
5456;SDS011;2751;49.802;9.944;2023-06-10T03:45:09;10.30;;;9.20;;
5456;SDS011;2751;49.802;9.944;2023-06-10T03:47:37;10.40;;;9.50;;
5456;SDS011;2751;49.802;9.944;2023-06-10T03:50:06;9.67;;;8.57;;
5456;SDS011;2751;49.802;9.944;2023-06-10T03:52:34;10.10;;;9.07;;
5456;SDS011;2751;49.802;9.944;2023-06-10T03:55:02;10.03;;;9.23;;
5456;SDS011;2751;49.802;9.944;2023-06-10T03:57:30;9.93;;;9.10;;
5456;SDS011;2751;49.802;9.944;2023-06-10T03:59:57;11.27;;;10.20;;
5456;SDS011;2751;49.802;9.944;2023-06-10T04:02:24;13.50;;;10.13;;
5456;SDS011;2751;49.802;9.944;2023-06-10T04:04:51;10.23;;;9.27;;
5456;SDS011;2751;49.802;9.944;2023-06-10T04:07:18;10.77;;;9.77;;
5456;SDS011;2751;49.802;9.944;2023-06-10T04:09:45;11.03;;;9.90;;
5456;SDS011;2751;49.802;9.944;2023-06-10T04:12:14;11.00;;;10.00;;
5456;SDS011;2751;49.802;9.944;2023-06-10T04:14:41;10.20;;;9.20;;
5456;SDS011;2751;49.802;9.944;2023-06-10T04:17:08;11.70;;;9.40;;
5456;SDS011;2751;49.802;9.944;2023-06-10T04:19:36;10.17;;;9.20;;
5456;SDS011;2751;49.802;9.944;2023-06-10T04:22:03;10.43;;;9.53;;
5456;SDS011;2751;49.802;9.944;2023-06-10T04:24:31;11.90;;;10.10;;
5456;SDS011;2751;49.802;9.944;2023-06-10T04:26:58;10.10;;;9.20;;
5456;SDS011;2751;49.802;9.944;2023-06-10T04:29:27;10.73;;;9.63;;
5456;SDS011;2751;49.802;9.944;2023-06-10T04:31:54;11.70;;;10.60;;
5456;SDS011;2751;49.802;9.944;2023-06-10T04:34:21;11.00;;;9.80;;
5456;SDS011;2751;49.802;9.944;2023-06-10T04:36:50;11.27;;;9.30;;
5456;SDS011;2751;49.802;9.944;2023-06-10T04:39:18;10.20;;;9.30;;
5456;SDS011;2751;49.802;9.944;2023-06-10T04:41:45;10.80;;;9.80;;
5456;SDS011;2751;49.802;9.944;2023-06-10T04:44:12;10.27;;;9.27;;
5456;SDS011;2751;49.802;9.944;2023-06-10T04:46:41;11.10;;;10.10;;
5456;SDS011;2751;49.802;9.944;2023-06-10T04:49:08;10.47;;;9.50;;
5456;SDS011;2751;49.802;9.944;2023-06-10T04:51:35;10.47;;;9.57;;
5456;SDS011;2751;49.802;9.944;2023-06-10T04:54:02;10.27;;;9.47;;
5456;SDS011;2751;49.802;9.944;2023-06-10T04:56:30;9.87;;;8.97;;
5456;SDS011;2751;49.802;9.944;2023-06-10T04:58:57;11.17;;;9.90;;
5456;SDS011;2751;49.802;9.944;2023-06-10T05:01:24;10.47;;;9.37;;
5456;SDS011;2751;49.802;9.944;2023-06-10T05:03:54;10.63;;;9.63;;
5456;SDS011;2751;49.802;9.944;2023-06-10T05:06:21;9.77;;;8.97;;
5456;SDS011;2751;49.802;9.944;2023-06-10T05:08:48;10.53;;;9.53;;
5456;SDS011;2751;49.802;9.944;2023-06-10T05:11:15;11.40;;;10.30;;
5456;SDS011;2751;49.802;9.944;2023-06-10T05:13:42;10.00;;;9.03;;
5456;SDS011;2751;49.802;9.944;2023-06-10T05:16:09;10.43;;;9.50;;
5456;SDS011;2751;49.802;9.944;2023-06-10T05:18:36;9.90;;;8.90;;
5456;SDS011;2751;49.802;9.944;2023-06-10T05:21:04;9.53;;;8.73;;
5456;SDS011;2751;49.802;9.944;2023-06-10T05:23:31;11.30;;;10.20;;
5456;SDS011;2751;49.802;9.944;2023-06-10T05:25:58;9.97;;;9.07;;
5456;SDS011;2751;49.802;9.944;2023-06-10T05:28:25;10.17;;;9.17;;
5456;SDS011;2751;49.802;9.944;2023-06-10T05:30:52;9.50;;;8.60;;
5456;SDS011;2751;49.802;9.944;2023-06-10T05:33:18;10.30;;;9.40;;
5456;SDS011;2751;49.802;9.944;2023-06-10T05:35:45;16.37;;;8.97;;
5456;SDS011;2751;49.802;9.944;2023-06-10T05:38:14;9.63;;;8.77;;
5456;SDS011;2751;49.802;9.944;2023-06-10T05:40:41;9.80;;;8.90;;
5456;SDS011;2751;49.802;9.944;2023-06-10T05:43:08;9.10;;;8.30;;
5456;SDS011;2751;49.802;9.944;2023-06-10T05:45:36;9.70;;;8.80;;
5456;SDS011;2751;49.802;9.944;2023-06-10T05:48:05;11.07;;;8.33;;
5456;SDS011;2751;49.802;9.944;2023-06-10T05:50:33;10.23;;;8.63;;
5456;SDS011;2751;49.802;9.944;2023-06-10T05:53:03;9.70;;;8.67;;
5456;SDS011;2751;49.802;9.944;2023-06-10T05:55:33;9.60;;;8.80;;
5456;SDS011;2751;49.802;9.944;2023-06-10T05:58:01;9.97;;;8.50;;
5456;SDS011;2751;49.802;9.944;2023-06-10T06:00:28;8.53;;;7.83;;
5456;SDS011;2751;49.802;9.944;2023-06-10T06:02:55;9.60;;;8.67;;
5456;SDS011;2751;49.802;9.944;2023-06-10T06:05:22;10.07;;;8.60;;
5456;SDS011;2751;49.802;9.944;2023-06-10T06:07:49;9.33;;;8.53;;
5456;SDS011;2751;49.802;9.944;2023-06-10T06:10:16;9.73;;;8.73;;
5456;SDS011;2751;49.802;9.944;2023-06-10T06:12:45;10.20;;;9.13;;
5456;SDS011;2751;49.802;9.944;2023-06-10T06:15:12;10.30;;;8.53;;
5456;SDS011;2751;49.802;9.944;2023-06-10T06:17:39;9.20;;;7.97;;
5456;SDS011;2751;49.802;9.944;2023-06-10T06:20:06;8.90;;;8.00;;
5456;SDS011;2751;49.802;9.944;2023-06-10T06:22:34;10.40;;;8.70;;
5456;SDS011;2751;49.802;9.944;2023-06-10T06:25:00;9.33;;;8.47;;
5456;SDS011;2751;49.802;9.944;2023-06-10T06:27:28;9.63;;;8.40;;
5456;SDS011;2751;49.802;9.944;2023-06-10T06:29:56;10.63;;;7.80;;
5456;SDS011;2751;49.802;9.944;2023-06-10T06:32:23;7.17;;;6.60;;
5456;SDS011;2751;49.802;9.944;2023-06-10T06:34:52;13.10;;;7.03;;
5456;SDS011;2751;49.802;9.944;2023-06-10T06:37:20;8.60;;;7.80;;
5456;SDS011;2751;49.802;9.944;2023-06-10T06:39:48;7.57;;;6.97;;
5456;SDS011;2751;49.802;9.944;2023-06-10T06:42:14;7.90;;;7.10;;
5456;SDS011;2751;49.802;9.944;2023-06-10T06:44:41;9.10;;;7.43;;
5456;SDS011;2751;49.802;9.944;2023-06-10T06:47:09;8.40;;;7.33;;
5456;SDS011;2751;49.802;9.944;2023-06-10T06:49:36;8.97;;;8.20;;
5456;SDS011;2751;49.802;9.944;2023-06-10T06:52:04;10.10;;;8.90;;
5456;SDS011;2751;49.802;9.944;2023-06-10T06:54:31;8.13;;;7.03;;
5456;SDS011;2751;49.802;9.944;2023-06-10T06:56:58;11.23;;;8.13;;
5456;SDS011;2751;49.802;9.944;2023-06-10T06:59:25;9.03;;;8.03;;
5456;SDS011;2751;49.802;9.944;2023-06-10T07:01:51;8.27;;;7.57;;
5456;SDS011;2751;49.802;9.944;2023-06-10T07:04:21;9.20;;;8.50;;
5456;SDS011;2751;49.802;9.944;2023-06-10T07:06:47;8.30;;;7.67;;
5456;SDS011;2751;49.802;9.944;2023-06-10T07:09:14;9.97;;;8.33;;
5456;SDS011;2751;49.802;9.944;2023-06-10T07:11:41;8.87;;;7.97;;
5456;SDS011;2751;49.802;9.944;2023-06-10T07:14:08;8.97;;;8.17;;
5456;SDS011;2751;49.802;9.944;2023-06-10T07:16:35;9.07;;;8.17;;
5456;SDS011;2751;49.802;9.944;2023-06-10T07:19:02;9.00;;;8.27;;
5456;SDS011;2751;49.802;9.944;2023-06-10T07:21:30;9.13;;;8.23;;
5456;SDS011;2751;49.802;9.944;2023-06-10T07:23:58;9.13;;;8.20;;
5456;SDS011;2751;49.802;9.944;2023-06-10T07:26:25;9.20;;;8.50;;
5456;SDS011;2751;49.802;9.944;2023-06-10T07:28:52;8.83;;;8.13;;
5456;SDS011;2751;49.802;9.944;2023-06-10T07:31:19;8.73;;;7.97;;
5456;SDS011;2751;49.802;9.944;2023-06-10T07:33:46;9.50;;;8.70;;
5456;SDS011;2751;49.802;9.944;2023-06-10T07:36:13;8.93;;;8.03;;
5456;SDS011;2751;49.802;9.944;2023-06-10T07:38:41;9.17;;;8.30;;
5456;SDS011;2751;49.802;9.944;2023-06-10T07:41:08;8.90;;;8.10;;
5456;SDS011;2751;49.802;9.944;2023-06-10T07:43:36;8.77;;;7.97;;
5456;SDS011;2751;49.802;9.944;2023-06-10T07:46:03;9.20;;;7.90;;
5456;SDS011;2751;49.802;9.944;2023-06-10T07:48:30;8.30;;;7.50;;
5456;SDS011;2751;49.802;9.944;2023-06-10T07:50:57;11.50;;;7.30;;
5456;SDS011;2751;49.802;9.944;2023-06-10T07:53:24;7.67;;;7.10;;
5456;SDS011;2751;49.802;9.944;2023-06-10T07:55:52;8.83;;;8.13;;
5456;SDS011;2751;49.802;9.944;2023-06-10T07:58:19;9.83;;;7.93;;
5456;SDS011;2751;49.802;9.944;2023-06-10T08:00:47;7.53;;;6.93;;
5456;SDS011;2751;49.802;9.944;2023-06-10T08:03:14;7.70;;;7.03;;
5456;SDS011;2751;49.802;9.944;2023-06-10T08:05:40;6.70;;;6.20;;
5456;SDS011;2751;49.802;9.944;2023-06-10T08:08:07;8.33;;;7.50;;
5456;SDS011;2751;49.802;9.944;2023-06-10T08:10:36;7.57;;;6.97;;
5456;SDS011;2751;49.802;9.944;2023-06-10T08:13:04;10.07;;;7.10;;
5456;SDS011;2751;49.802;9.944;2023-06-10T08:15:31;11.33;;;7.63;;
5456;SDS011;2751;49.802;9.944;2023-06-10T08:17:57;8.67;;;6.90;;
5456;SDS011;2751;49.802;9.944;2023-06-10T08:20:24;9.53;;;7.57;;
5456;SDS011;2751;49.802;9.944;2023-06-10T08:22:51;7.83;;;7.03;;
5456;SDS011;2751;49.802;9.944;2023-06-10T08:25:18;7.10;;;6.60;;
5456;SDS011;2751;49.802;9.944;2023-06-10T08:27:47;8.07;;;7.47;;
5456;SDS011;2751;49.802;9.944;2023-06-10T08:30:16;7.10;;;6.60;;
5456;SDS011;2751;49.802;9.944;2023-06-10T08:32:43;10.07;;;6.40;;
5456;SDS011;2751;49.802;9.944;2023-06-10T08:35:10;7.40;;;6.80;;
5456;SDS011;2751;49.802;9.944;2023-06-10T08:37:37;7.30;;;6.53;;
5456;SDS011;2751;49.802;9.944;2023-06-10T08:40:04;6.60;;;6.10;;
5456;SDS011;2751;49.802;9.944;2023-06-10T08:42:33;8.10;;;7.37;;
5456;SDS011;2751;49.802;9.944;2023-06-10T08:45:04;6.80;;;6.20;;
5456;SDS011;2751;49.802;9.944;2023-06-10T08:47:35;8.60;;;6.10;;
5456;SDS011;2751;49.802;9.944;2023-06-10T08:50:03;6.00;;;5.50;;
5456;SDS011;2751;49.802;9.944;2023-06-10T08:52:34;9.20;;;6.37;;
5456;SDS011;2751;49.802;9.944;2023-06-10T08:55:03;7.60;;;6.47;;
5456;SDS011;2751;49.802;9.944;2023-06-10T08:57:35;6.53;;;6.00;;
5456;SDS011;2751;49.802;9.944;2023-06-10T09:00:03;6.13;;;5.53;;
5456;SDS011;2751;49.802;9.944;2023-06-10T09:02:32;6.17;;;5.57;;
5456;SDS011;2751;49.802;9.944;2023-06-10T09:05:02;6.27;;;5.77;;
5456;SDS011;2751;49.802;9.944;2023-06-10T09:07:29;5.77;;;5.37;;
5456;SDS011;2751;49.802;9.944;2023-06-10T09:09:59;7.10;;;5.57;;
5456;SDS011;2751;49.802;9.944;2023-06-10T09:12:31;5.90;;;5.30;;
5456;SDS011;2751;49.802;9.944;2023-06-10T09:14:59;5.40;;;5.00;;
5456;SDS011;2751;49.802;9.944;2023-06-10T09:17:26;5.03;;;4.73;;
5456;SDS011;2751;49.802;9.944;2023-06-10T09:19:54;7.23;;;5.60;;
5456;SDS011;2751;49.802;9.944;2023-06-10T09:22:22;5.70;;;5.30;;
5456;SDS011;2751;49.802;9.944;2023-06-10T09:24:51;5.57;;;5.10;;
5456;SDS011;2751;49.802;9.944;2023-06-10T09:27:29;6.10;;;5.40;;
5456;SDS011;2751;49.802;9.944;2023-06-10T09:29:57;4.67;;;4.27;;
5456;SDS011;2751;49.802;9.944;2023-06-10T09:32:24;7.00;;;4.70;;
5456;SDS011;2751;49.802;9.944;2023-06-10T09:34:51;4.83;;;4.53;;
5456;SDS011;2751;49.802;9.944;2023-06-10T09:37:22;4.53;;;4.00;;
5456;SDS011;2751;49.802;9.944;2023-06-10T09:40:00;4.33;;;4.13;;
5456;SDS011;2751;49.802;9.944;2023-06-10T09:42:31;4.50;;;4.10;;
5456;SDS011;2751;49.802;9.944;2023-06-10T09:45:00;4.27;;;4.03;;
5456;SDS011;2751;49.802;9.944;2023-06-10T09:47:27;3.80;;;3.60;;
5456;SDS011;2751;49.802;9.944;2023-06-10T09:49:54;3.97;;;3.77;;
5456;SDS011;2751;49.802;9.944;2023-06-10T09:52:23;3.80;;;3.60;;
5456;SDS011;2751;49.802;9.944;2023-06-10T09:54:50;3.50;;;3.30;;
5456;SDS011;2751;49.802;9.944;2023-06-10T09:57:18;3.90;;;3.60;;
5456;SDS011;2751;49.802;9.944;2023-06-10T09:59:45;3.67;;;3.47;;
5456;SDS011;2751;49.802;9.944;2023-06-10T10:02:15;3.90;;;3.70;;
5456;SDS011;2751;49.802;9.944;2023-06-10T10:04:43;2.90;;;2.80;;
5456;SDS011;2751;49.802;9.944;2023-06-10T10:07:10;6.30;;;3.60;;
5456;SDS011;2751;49.802;9.944;2023-06-10T10:09:39;3.27;;;3.07;;
5456;SDS011;2751;49.802;9.944;2023-06-10T10:12:09;3.63;;;3.53;;
5456;SDS011;2751;49.802;9.944;2023-06-10T10:14:37;3.57;;;3.37;;
5456;SDS011;2751;49.802;9.944;2023-06-10T10:17:06;3.33;;;3.17;;
5456;SDS011;2751;49.802;9.944;2023-06-10T10:19:36;3.23;;;3.03;;
5456;SDS011;2751;49.802;9.944;2023-06-10T10:22:14;3.33;;;3.13;;
5456;SDS011;2751;49.802;9.944;2023-06-10T10:24:48;3.23;;;2.80;;
5456;SDS011;2751;49.802;9.944;2023-06-10T10:27:17;3.33;;;3.13;;
5456;SDS011;2751;49.802;9.944;2023-06-10T10:29:48;5.77;;;2.90;;
5456;SDS011;2751;49.802;9.944;2023-06-10T10:32:18;3.00;;;2.90;;
5456;SDS011;2751;49.802;9.944;2023-06-10T10:34:49;2.90;;;2.80;;
5456;SDS011;2751;49.802;9.944;2023-06-10T10:37:21;3.10;;;2.93;;
5456;SDS011;2751;49.802;9.944;2023-06-10T10:39:50;2.87;;;2.77;;
5456;SDS011;2751;49.802;9.944;2023-06-10T10:42:19;3.57;;;3.37;;
5456;SDS011;2751;49.802;9.944;2023-06-10T10:44:46;3.67;;;3.30;;
5456;SDS011;2751;49.802;9.944;2023-06-10T10:47:15;2.93;;;2.80;;
5456;SDS011;2751;49.802;9.944;2023-06-10T10:49:47;2.90;;;2.80;;
5456;SDS011;2751;49.802;9.944;2023-06-10T10:52:17;2.90;;;2.80;;
5456;SDS011;2751;49.802;9.944;2023-06-10T10:54:45;3.20;;;2.70;;
5456;SDS011;2751;49.802;9.944;2023-06-10T10:57:14;2.87;;;2.77;;
5456;SDS011;2751;49.802;9.944;2023-06-10T10:59:43;2.90;;;2.53;;
5456;SDS011;2751;49.802;9.944;2023-06-10T11:02:14;2.93;;;2.83;;
5456;SDS011;2751;49.802;9.944;2023-06-10T11:04:44;2.90;;;2.80;;
5456;SDS011;2751;49.802;9.944;2023-06-10T11:07:13;3.33;;;3.10;;
5456;SDS011;2751;49.802;9.944;2023-06-10T11:12:25;2.73;;;2.63;;
5456;SDS011;2751;49.802;9.944;2023-06-10T11:14:53;2.90;;;2.70;;
5456;SDS011;2751;49.802;9.944;2023-06-10T11:17:21;3.70;;;3.40;;
5456;SDS011;2751;49.802;9.944;2023-06-10T11:19:48;3.30;;;3.10;;
5456;SDS011;2751;49.802;9.944;2023-06-10T11:22:16;3.47;;;3.23;;
5456;SDS011;2751;49.802;9.944;2023-06-10T11:24:47;3.40;;;3.20;;
5456;SDS011;2751;49.802;9.944;2023-06-10T11:27:15;3.60;;;3.40;;
5456;SDS011;2751;49.802;9.944;2023-06-10T11:29:58;3.10;;;3.00;;
5456;SDS011;2751;49.802;9.944;2023-06-10T11:32:44;3.33;;;2.60;;
5456;SDS011;2751;49.802;9.944;2023-06-10T11:35:16;3.37;;;3.07;;
5456;SDS011;2751;49.802;9.944;2023-06-10T11:37:45;2.87;;;2.77;;
5456;SDS011;2751;49.802;9.944;2023-06-10T11:40:13;4.27;;;2.60;;
5456;SDS011;2751;49.802;9.944;2023-06-10T11:42:40;3.53;;;3.10;;
5456;SDS011;2751;49.802;9.944;2023-06-10T11:45:14;2.90;;;2.80;;
5456;SDS011;2751;49.802;9.944;2023-06-10T11:47:54;4.50;;;2.50;;
5456;SDS011;2751;49.802;9.944;2023-06-10T11:50:27;2.57;;;2.47;;
5456;SDS011;2751;49.802;9.944;2023-06-10T11:52:55;2.80;;;2.70;;
5456;SDS011;2751;49.802;9.944;2023-06-10T11:55:23;2.80;;;2.60;;
5456;SDS011;2751;49.802;9.944;2023-06-10T11:57:50;2.80;;;2.70;;
5456;SDS011;2751;49.802;9.944;2023-06-10T12:00:23;2.40;;;2.30;;
5456;SDS011;2751;49.802;9.944;2023-06-10T12:02:56;2.93;;;2.73;;
5456;SDS011;2751;49.802;9.944;2023-06-10T12:05:23;2.67;;;2.47;;
5456;SDS011;2751;49.802;9.944;2023-06-10T12:10:39;2.50;;;2.40;;
5456;SDS011;2751;49.802;9.944;2023-06-10T12:13:06;2.83;;;2.73;;
5456;SDS011;2751;49.802;9.944;2023-06-10T12:15:35;2.70;;;2.50;;
5456;SDS011;2751;49.802;9.944;2023-06-10T12:18:02;2.63;;;2.53;;
5456;SDS011;2751;49.802;9.944;2023-06-10T12:20:30;3.47;;;3.27;;
5456;SDS011;2751;49.802;9.944;2023-06-10T12:22:58;2.67;;;2.57;;
5456;SDS011;2751;49.802;9.944;2023-06-10T12:25:26;2.60;;;2.50;;
5456;SDS011;2751;49.802;9.944;2023-06-10T12:27:55;2.57;;;2.47;;
5456;SDS011;2751;49.802;9.944;2023-06-10T12:30:23;2.83;;;2.73;;
5456;SDS011;2751;49.802;9.944;2023-06-10T12:32:53;3.53;;;2.70;;
5456;SDS011;2751;49.802;9.944;2023-06-10T12:35:20;2.50;;;2.30;;
5456;SDS011;2751;49.802;9.944;2023-06-10T12:37:56;3.50;;;2.73;;
5456;SDS011;2751;49.802;9.944;2023-06-10T12:40:26;3.50;;;3.30;;
5456;SDS011;2751;49.802;9.944;2023-06-10T12:42:54;2.17;;;2.07;;
5456;SDS011;2751;49.802;9.944;2023-06-10T12:45:31;2.83;;;2.70;;
5456;SDS011;2751;49.802;9.944;2023-06-10T12:48:07;2.40;;;2.20;;
5456;SDS011;2751;49.802;9.944;2023-06-10T12:50:34;2.07;;;1.97;;
5456;SDS011;2751;49.802;9.944;2023-06-10T12:53:02;3.00;;;2.90;;
5456;SDS011;2751;49.802;9.944;2023-06-10T12:55:29;3.00;;;2.90;;
5456;SDS011;2751;49.802;9.944;2023-06-10T12:57:57;2.40;;;2.30;;
5456;SDS011;2751;49.802;9.944;2023-06-10T13:00:24;2.50;;;2.40;;
5456;SDS011;2751;49.802;9.944;2023-06-10T13:02:54;2.53;;;2.43;;
5456;SDS011;2751;49.802;9.944;2023-06-10T13:05:24;2.73;;;2.40;;
5456;SDS011;2751;49.802;9.944;2023-06-10T13:07:51;2.93;;;2.63;;
5456;SDS011;2751;49.802;9.944;2023-06-10T13:10:18;2.97;;;2.77;;
5456;SDS011;2751;49.802;9.944;2023-06-10T13:12:45;2.57;;;2.47;;
5456;SDS011;2751;49.802;9.944;2023-06-10T13:15:12;2.30;;;2.20;;
5456;SDS011;2751;49.802;9.944;2023-06-10T13:17:40;2.23;;;2.13;;
5456;SDS011;2751;49.802;9.944;2023-06-10T13:20:07;2.53;;;2.43;;
5456;SDS011;2751;49.802;9.944;2023-06-10T13:22:36;5.57;;;2.80;;
5456;SDS011;2751;49.802;9.944;2023-06-10T13:25:03;2.30;;;2.20;;
5456;SDS011;2751;49.802;9.944;2023-06-10T13:27:32;2.50;;;2.27;;
5456;SDS011;2751;49.802;9.944;2023-06-10T13:29:58;2.70;;;2.10;;
5456;SDS011;2751;49.802;9.944;2023-06-10T13:32:25;2.40;;;2.30;;
5456;SDS011;2751;49.802;9.944;2023-06-10T13:34:52;2.40;;;2.30;;
5456;SDS011;2751;49.802;9.944;2023-06-10T13:37:19;2.70;;;2.60;;
5456;SDS011;2751;49.802;9.944;2023-06-10T13:39:47;2.27;;;2.13;;
5456;SDS011;2751;49.802;9.944;2023-06-10T13:42:15;2.27;;;2.17;;
5456;SDS011;2751;49.802;9.944;2023-06-10T13:44:42;2.83;;;2.43;;
5456;SDS011;2751;49.802;9.944;2023-06-10T13:47:09;2.40;;;2.30;;
5456;SDS011;2751;49.802;9.944;2023-06-10T13:49:36;2.47;;;2.30;;
5456;SDS011;2751;49.802;9.944;2023-06-10T13:52:04;2.50;;;2.30;;
5456;SDS011;2751;49.802;9.944;2023-06-10T13:54:31;2.97;;;2.77;;
5456;SDS011;2751;49.802;9.944;2023-06-10T13:57:00;2.63;;;2.53;;
5456;SDS011;2751;49.802;9.944;2023-06-10T13:59:27;2.50;;;2.40;;
5456;SDS011;2751;49.802;9.944;2023-06-10T14:01:53;2.70;;;2.60;;
5456;SDS011;2751;49.802;9.944;2023-06-10T14:04:20;3.20;;;3.10;;
5456;SDS011;2751;49.802;9.944;2023-06-10T14:06:47;3.90;;;2.80;;
5456;SDS011;2751;49.802;9.944;2023-06-10T14:09:14;3.50;;;3.30;;
5456;SDS011;2751;49.802;9.944;2023-06-10T14:11:41;3.07;;;2.80;;
5456;SDS011;2751;49.802;9.944;2023-06-10T14:14:10;4.40;;;3.20;;
5456;SDS011;2751;49.802;9.944;2023-06-10T14:16:37;3.80;;;3.43;;
5456;SDS011;2751;49.802;9.944;2023-06-10T14:19:03;2.90;;;2.80;;
5456;SDS011;2751;49.802;9.944;2023-06-10T14:21:30;2.50;;;2.30;;
5456;SDS011;2751;49.802;9.944;2023-06-10T14:23:57;2.70;;;2.50;;
5456;SDS011;2751;49.802;9.944;2023-06-10T14:26:24;2.70;;;2.50;;
5456;SDS011;2751;49.802;9.944;2023-06-10T14:28:51;2.20;;;2.10;;
5456;SDS011;2751;49.802;9.944;2023-06-10T14:31:19;2.33;;;2.23;;
5456;SDS011;2751;49.802;9.944;2023-06-10T14:33:46;2.77;;;2.17;;
5456;SDS011;2751;49.802;9.944;2023-06-10T14:36:13;2.63;;;2.53;;
5456;SDS011;2751;49.802;9.944;2023-06-10T14:38:40;3.10;;;3.00;;
5456;SDS011;2751;49.802;9.944;2023-06-10T14:41:06;2.23;;;2.23;;
5456;SDS011;2751;49.802;9.944;2023-06-10T14:43:33;2.20;;;2.10;;
5456;SDS011;2751;49.802;9.944;2023-06-10T14:46:00;2.50;;;2.40;;
5456;SDS011;2751;49.802;9.944;2023-06-10T14:48:28;2.00;;;2.00;;
5456;SDS011;2751;49.802;9.944;2023-06-10T14:50:55;3.47;;;2.00;;
5456;SDS011;2751;49.802;9.944;2023-06-10T14:53:22;2.53;;;1.90;;
5456;SDS011;2751;49.802;9.944;2023-06-10T14:55:49;1.83;;;1.73;;
5456;SDS011;2751;49.802;9.944;2023-06-10T14:58:16;1.93;;;1.77;;
5456;SDS011;2751;49.802;9.944;2023-06-10T15:00:42;2.07;;;1.97;;
5456;SDS011;2751;49.802;9.944;2023-06-10T15:03:09;3.00;;;2.80;;
5456;SDS011;2751;49.802;9.944;2023-06-10T15:05:38;2.00;;;1.90;;
5456;SDS011;2751;49.802;9.944;2023-06-10T15:08:04;2.73;;;2.60;;
5456;SDS011;2751;49.802;9.944;2023-06-10T15:10:32;2.30;;;2.10;;
5456;SDS011;2751;49.802;9.944;2023-06-10T15:12:59;2.50;;;2.40;;
5456;SDS011;2751;49.802;9.944;2023-06-10T15:15:26;3.60;;;3.40;;
5456;SDS011;2751;49.802;9.944;2023-06-10T15:17:53;3.03;;;2.83;;
5456;SDS011;2751;49.802;9.944;2023-06-10T15:20:20;4.70;;;2.60;;